sensor_id;sensor_type;location;lat;lon;timestamp;temperature;humidity
71942;DHT22;59997;53.300;-6.260;2022-07-23T00:01:23;15.70;67.28
71942;DHT22;59997;53.300;-6.260;2022-07-23T00:03:49;15.90;67.26
71942;DHT22;59997;53.300;-6.260;2022-07-23T00:06:17;15.99;66.71
71942;DHT22;59997;53.300;-6.260;2022-07-23T00:08:43;16.07;65.93
71942;DHT22;59997;53.300;-6.260;2022-07-23T00:11:09;16.14;69.88
71942;DHT22;59997;53.300;-6.260;2022-07-23T00:13:35;16.20;68.19
71942;DHT22;59997;53.300;-6.260;2022-07-23T00:16:01;16.53;65.78
71942;DHT22;59997;53.300;-6.260;2022-07-23T00:18:28;16.59;66.75
71942;DHT22;59997;53.300;-6.260;2022-07-23T00:20:54;16.60;68.37
71942;DHT22;59997;53.300;-6.260;2022-07-23T00:23:19;16.48;70.45
71942;DHT22;59997;53.300;-6.260;2022-07-23T00:25:47;16.22;72.51
71942;DHT22;59997;53.300;-6.260;2022-07-23T00:28:12;15.99;74.60
71942;DHT22;59997;53.300;-6.260;2022-07-23T00:30:38;15.83;75.91
71942;DHT22;59997;53.300;-6.260;2022-07-23T00:33:06;15.62;77.71
71942;DHT22;59997;53.300;-6.260;2022-07-23T00:35:51;15.52;78.42
71942;DHT22;59997;53.300;-6.260;2022-07-23T00:38:17;15.54;80.05
71942;DHT22;59997;53.300;-6.260;2022-07-23T00:40:43;15.42;79.36
71942;DHT22;59997;53.300;-6.260;2022-07-23T00:43:09;15.35;78.89
71942;DHT22;59997;53.300;-6.260;2022-07-23T00:45:35;15.31;79.48
71942;DHT22;59997;53.300;-6.260;2022-07-23T00:48:01;15.20;81.25
71942;DHT22;59997;53.300;-6.260;2022-07-23T00:50:28;15.13;83.46
71942;DHT22;59997;53.300;-6.260;2022-07-23T00:52:54;14.99;83.84
71942;DHT22;59997;53.300;-6.260;2022-07-23T00:55:20;14.88;84.81
71942;DHT22;59997;53.300;-6.260;2022-07-23T00:57:46;14.76;85.79
71942;DHT22;59997;53.300;-6.260;2022-07-23T01:00:14;14.61;87.26
71942;DHT22;59997;53.300;-6.260;2022-07-23T01:02:40;14.45;87.81
71942;DHT22;59997;53.300;-6.260;2022-07-23T01:05:07;14.37;88.82
71942;DHT22;59997;53.300;-6.260;2022-07-23T01:07:33;14.33;90.22
71942;DHT22;59997;53.300;-6.260;2022-07-23T01:10:00;14.33;90.24
71942;DHT22;59997;53.300;-6.260;2022-07-23T01:12:26;14.26;90.37
71942;DHT22;59997;53.300;-6.260;2022-07-23T01:14:58;14.24;90.83
71942;DHT22;59997;53.300;-6.260;2022-07-23T01:17:24;14.20;91.13
71942;DHT22;59997;53.300;-6.260;2022-07-23T01:19:50;14.21;91.43
71942;DHT22;59997;53.300;-6.260;2022-07-23T01:22:18;14.21;91.91
71942;DHT22;59997;53.300;-6.260;2022-07-23T01:24:44;14.21;91.97
71942;DHT22;59997;53.300;-6.260;2022-07-23T01:27:10;14.31;91.96
71942;DHT22;59997;53.300;-6.260;2022-07-23T01:29:38;14.40;92.12
71942;DHT22;59997;53.300;-6.260;2022-07-23T01:32:05;14.45;92.09
71942;DHT22;59997;53.300;-6.260;2022-07-23T01:34:30;14.44;92.15
71942;DHT22;59997;53.300;-6.260;2022-07-23T01:36:56;14.42;92.43
71942;DHT22;59997;53.300;-6.260;2022-07-23T01:39:22;14.49;92.34
71942;DHT22;59997;53.300;-6.260;2022-07-23T01:41:48;14.45;92.53
71942;DHT22;59997;53.300;-6.260;2022-07-23T01:44:13;14.51;92.54
71942;DHT22;59997;53.300;-6.260;2022-07-23T01:46:40;14.51;92.46
71942;DHT22;59997;53.300;-6.260;2022-07-23T01:49:06;14.52;92.68
71942;DHT22;59997;53.300;-6.260;2022-07-23T01:51:32;14.55;92.65
71942;DHT22;59997;53.300;-6.260;2022-07-23T01:53:58;14.54;91.81
71942;DHT22;59997;53.300;-6.260;2022-07-23T01:56:24;14.51;91.40
71942;DHT22;59997;53.300;-6.260;2022-07-23T01:58:50;14.49;91.28
71942;DHT22;59997;53.300;-6.260;2022-07-23T02:01:16;14.47;91.39
71942;DHT22;59997;53.300;-6.260;2022-07-23T02:03:42;14.45;91.29
71942;DHT22;59997;53.300;-6.260;2022-07-23T02:06:08;14.47;90.80
71942;DHT22;59997;53.300;-6.260;2022-07-23T02:08:34;14.44;90.46
71942;DHT22;59997;53.300;-6.260;2022-07-23T02:11:00;14.51;89.85
71942;DHT22;59997;53.300;-6.260;2022-07-23T02:13:26;14.49;89.43
71942;DHT22;59997;53.300;-6.260;2022-07-23T02:15:52;14.47;89.09
71942;DHT22;59997;53.300;-6.260;2022-07-23T02:18:17;14.49;88.47
71942;DHT22;59997;53.300;-6.260;2022-07-23T02:20:43;14.57;88.12
71942;DHT22;59997;53.300;-6.260;2022-07-23T02:23:10;14.67;87.64
71942;DHT22;59997;53.300;-6.260;2022-07-23T02:25:35;14.67;88.13
71942;DHT22;59997;53.300;-6.260;2022-07-23T02:28:01;14.69;87.70
71942;DHT22;59997;53.300;-6.260;2022-07-23T02:30:28;14.69;87.62
71942;DHT22;59997;53.300;-6.260;2022-07-23T02:32:55;14.72;88.01
71942;DHT22;59997;53.300;-6.260;2022-07-23T02:35:21;14.79;88.53
71942;DHT22;59997;53.300;-6.260;2022-07-23T02:37:48;14.75;88.19
71942;DHT22;59997;53.300;-6.260;2022-07-23T02:40:14;14.90;86.64
71942;DHT22;59997;53.300;-6.260;2022-07-23T02:42:40;14.97;86.39
71942;DHT22;59997;53.300;-6.260;2022-07-23T02:45:06;14.97;86.59
71942;DHT22;59997;53.300;-6.260;2022-07-23T02:47:32;14.97;87.16
71942;DHT22;59997;53.300;-6.260;2022-07-23T02:49:59;14.97;87.48
71942;DHT22;59997;53.300;-6.260;2022-07-23T02:52:25;15.03;86.94
71942;DHT22;59997;53.300;-6.260;2022-07-23T02:54:51;15.03;87.04
71942;DHT22;59997;53.300;-6.260;2022-07-23T02:57:17;15.13;87.26
71942;DHT22;59997;53.300;-6.260;2022-07-23T02:59:43;15.24;86.47
71942;DHT22;59997;53.300;-6.260;2022-07-23T03:02:09;15.30;86.71
71942;DHT22;59997;53.300;-6.260;2022-07-23T03:04:35;15.24;87.09
71942;DHT22;59997;53.300;-6.260;2022-07-23T03:07:00;15.23;87.28
71942;DHT22;59997;53.300;-6.260;2022-07-23T03:09:26;15.26;87.41
71942;DHT22;59997;53.300;-6.260;2022-07-23T03:11:52;15.28;87.45
71942;DHT22;59997;53.300;-6.260;2022-07-23T03:14:17;15.37;87.21
71942;DHT22;59997;53.300;-6.260;2022-07-23T03:16:43;15.35;87.56
71942;DHT22;59997;53.300;-6.260;2022-07-23T03:19:09;15.38;87.40
71942;DHT22;59997;53.300;-6.260;2022-07-23T03:21:35;15.42;87.34
71942;DHT22;59997;53.300;-6.260;2022-07-23T03:24:06;15.44;87.84
71942;DHT22;59997;53.300;-6.260;2022-07-23T03:26:32;15.48;87.81
71942;DHT22;59997;53.300;-6.260;2022-07-23T03:28:58;15.51;88.39
71942;DHT22;59997;53.300;-6.260;2022-07-23T03:31:23;15.45;88.63
71942;DHT22;59997;53.300;-6.260;2022-07-23T03:33:49;15.48;88.35
71942;DHT22;59997;53.300;-6.260;2022-07-23T03:36:15;15.45;88.57
71942;DHT22;59997;53.300;-6.260;2022-07-23T03:38:41;15.55;88.76
71942;DHT22;59997;53.300;-6.260;2022-07-23T03:41:07;15.57;88.83
71942;DHT22;59997;53.300;-6.260;2022-07-23T03:43:33;15.63;88.83
71942;DHT22;59997;53.300;-6.260;2022-07-23T03:45:59;15.59;89.42
71942;DHT22;59997;53.300;-6.260;2022-07-23T03:48:25;15.57;89.44
71942;DHT22;59997;53.300;-6.260;2022-07-23T03:50:50;15.58;89.52
71942;DHT22;59997;53.300;-6.260;2022-07-23T03:53:16;15.65;88.98
71942;DHT22;59997;53.300;-6.260;2022-07-23T03:55:41;15.61;89.44
71942;DHT22;59997;53.300;-6.260;2022-07-23T03:58:08;15.59;89.72
71942;DHT22;59997;53.300;-6.260;2022-07-23T04:00:34;15.57;90.08
71942;DHT22;59997;53.300;-6.260;2022-07-23T04:02:59;15.51;90.36
71942;DHT22;59997;53.300;-6.260;2022-07-23T04:05:26;15.47;90.67
71942;DHT22;59997;53.300;-6.260;2022-07-23T04:07:51;15.45;90.85
71942;DHT22;59997;53.300;-6.260;2022-07-23T04:10:17;15.61;90.44
71942;DHT22;59997;53.300;-6.260;2022-07-23T04:12:45;15.57;90.70
71942;DHT22;59997;53.300;-6.260;2022-07-23T04:15:10;15.55;90.90
71942;DHT22;59997;53.300;-6.260;2022-07-23T04:17:36;15.62;90.82
71942;DHT22;59997;53.300;-6.260;2022-07-23T04:20:03;15.63;91.23
71942;DHT22;59997;53.300;-6.260;2022-07-23T04:22:29;15.67;91.37
71942;DHT22;59997;53.300;-6.260;2022-07-23T04:24:55;15.67;91.57
71942;DHT22;59997;53.300;-6.260;2022-07-23T04:27:20;15.72;91.45
71942;DHT22;59997;53.300;-6.260;2022-07-23T04:29:46;15.78;91.57
71942;DHT22;59997;53.300;-6.260;2022-07-23T04:32:12;15.76;91.54
71942;DHT22;59997;53.300;-6.260;2022-07-23T04:34:37;15.75;91.67
71942;DHT22;59997;53.300;-6.260;2022-07-23T04:37:03;15.79;91.73
71942;DHT22;59997;53.300;-6.260;2022-07-23T04:39:29;15.78;91.85
71942;DHT22;59997;53.300;-6.260;2022-07-23T04:41:54;15.75;91.96
71942;DHT22;59997;53.300;-6.260;2022-07-23T04:44:20;15.76;92.00
71942;DHT22;59997;53.300;-6.260;2022-07-23T04:46:47;15.70;91.98
71942;DHT22;59997;53.300;-6.260;2022-07-23T04:49:12;15.70;92.04
71942;DHT22;59997;53.300;-6.260;2022-07-23T04:51:38;15.70;92.32
71942;DHT22;59997;53.300;-6.260;2022-07-23T04:54:04;15.78;92.05
71942;DHT22;59997;53.300;-6.260;2022-07-23T04:56:30;15.82;91.96
71942;DHT22;59997;53.300;-6.260;2022-07-23T04:58:56;15.85;91.89
71942;DHT22;59997;53.300;-6.260;2022-07-23T05:01:22;15.82;92.05
71942;DHT22;59997;53.300;-6.260;2022-07-23T05:03:48;15.81;92.36
71942;DHT22;59997;53.300;-6.260;2022-07-23T05:06:14;15.75;92.49
71942;DHT22;59997;53.300;-6.260;2022-07-23T05:08:40;15.73;92.64
71942;DHT22;59997;53.300;-6.260;2022-07-23T05:11:06;15.75;93.01
71942;DHT22;59997;53.300;-6.260;2022-07-23T05:13:31;15.67;93.37
71942;DHT22;59997;53.300;-6.260;2022-07-23T05:15:57;15.66;93.80
71942;DHT22;59997;53.300;-6.260;2022-07-23T05:18:23;15.69;93.94
71942;DHT22;59997;53.300;-6.260;2022-07-23T05:20:49;15.67;94.05
71942;DHT22;59997;53.300;-6.260;2022-07-23T05:23:15;15.61;94.28
71942;DHT22;59997;53.300;-6.260;2022-07-23T05:25:41;15.63;94.54
71942;DHT22;59997;53.300;-6.260;2022-07-23T05:28:07;15.69;94.51
71942;DHT22;59997;53.300;-6.260;2022-07-23T05:30:32;15.66;94.66
71942;DHT22;59997;53.300;-6.260;2022-07-23T05:32:58;15.69;94.75
71942;DHT22;59997;53.300;-6.260;2022-07-23T05:35:24;15.69;94.83
71942;DHT22;59997;53.300;-6.260;2022-07-23T05:37:51;15.66;95.05
71942;DHT22;59997;53.300;-6.260;2022-07-23T05:40:18;15.72;95.13
71942;DHT22;59997;53.300;-6.260;2022-07-23T05:42:43;15.70;95.22
71942;DHT22;59997;53.300;-6.260;2022-07-23T05:45:10;15.69;95.34
71942;DHT22;59997;53.300;-6.260;2022-07-23T05:47:54;15.73;95.46
71942;DHT22;59997;53.300;-6.260;2022-07-23T05:50:20;15.67;95.63
71942;DHT22;59997;53.300;-6.260;2022-07-23T05:52:47;15.65;95.92
71942;DHT22;59997;53.300;-6.260;2022-07-23T05:55:13;15.66;96.01
71942;DHT22;59997;53.300;-6.260;2022-07-23T05:57:39;15.67;96.17
71942;DHT22;59997;53.300;-6.260;2022-07-23T06:00:07;15.72;96.21
71942;DHT22;59997;53.300;-6.260;2022-07-23T06:02:34;15.73;96.24
71942;DHT22;59997;53.300;-6.260;2022-07-23T06:05:00;15.70;96.28
71942;DHT22;59997;53.300;-6.260;2022-07-23T06:07:26;15.67;96.31
71942;DHT22;59997;53.300;-6.260;2022-07-23T06:09:51;15.67;96.35
71942;DHT22;59997;53.300;-6.260;2022-07-23T06:12:18;15.66;96.41
71942;DHT22;59997;53.300;-6.260;2022-07-23T06:14:44;15.63;96.53
71942;DHT22;59997;53.300;-6.260;2022-07-23T06:17:10;15.59;96.62
71942;DHT22;59997;53.300;-6.260;2022-07-23T06:19:36;15.61;96.79
71942;DHT22;59997;53.300;-6.260;2022-07-23T06:22:02;15.62;96.75
71942;DHT22;59997;53.300;-6.260;2022-07-23T06:24:29;15.66;96.90
71942;DHT22;59997;53.300;-6.260;2022-07-23T06:26:55;15.69;96.85
71942;DHT22;59997;53.300;-6.260;2022-07-23T06:29:20;15.72;96.73
71942;DHT22;59997;53.300;-6.260;2022-07-23T06:31:47;15.72;96.78
71942;DHT22;59997;53.300;-6.260;2022-07-23T06:34:12;15.73;96.88
71942;DHT22;59997;53.300;-6.260;2022-07-23T06:36:38;15.76;96.90
71942;DHT22;59997;53.300;-6.260;2022-07-23T06:39:04;15.78;96.88
71942;DHT22;59997;53.300;-6.260;2022-07-23T06:41:29;15.81;96.83
71942;DHT22;59997;53.300;-6.260;2022-07-23T06:43:54;15.81;96.93
71942;DHT22;59997;53.300;-6.260;2022-07-23T06:46:21;15.82;96.99
71942;DHT22;59997;53.300;-6.260;2022-07-23T06:48:47;15.89;96.78
71942;DHT22;59997;53.300;-6.260;2022-07-23T06:51:13;15.90;96.68
71942;DHT22;59997;53.300;-6.260;2022-07-23T06:53:39;15.90;96.56
71942;DHT22;59997;53.300;-6.260;2022-07-23T06:56:05;15.87;96.65
71942;DHT22;59997;53.300;-6.260;2022-07-23T06:58:31;15.89;96.63
71942;DHT22;59997;53.300;-6.260;2022-07-23T07:00:57;15.92;96.60
71942;DHT22;59997;53.300;-6.260;2022-07-23T07:03:23;15.93;96.64
71942;DHT22;59997;53.300;-6.260;2022-07-23T07:05:48;15.97;96.55
71942;DHT22;59997;53.300;-6.260;2022-07-23T07:08:15;15.93;96.48
71942;DHT22;59997;53.300;-6.260;2022-07-23T07:10:41;16.00;96.49
71942;DHT22;59997;53.300;-6.260;2022-07-23T07:13:06;16.10;96.38
71942;DHT22;59997;53.300;-6.260;2022-07-23T07:15:33;16.21;96.19
71942;DHT22;59997;53.300;-6.260;2022-07-23T07:17:58;16.24;96.00
71942;DHT22;59997;53.300;-6.260;2022-07-23T07:20:24;16.25;95.97
71942;DHT22;59997;53.300;-6.260;2022-07-23T07:22:50;16.31;96.02
71942;DHT22;59997;53.300;-6.260;2022-07-23T07:25:16;16.32;95.90
71942;DHT22;59997;53.300;-6.260;2022-07-23T07:27:42;16.44;95.93
71942;DHT22;59997;53.300;-6.260;2022-07-23T07:30:10;16.55;95.73
71942;DHT22;59997;53.300;-6.260;2022-07-23T07:32:36;16.62;95.60
71942;DHT22;59997;53.300;-6.260;2022-07-23T07:35:04;16.75;95.27
71942;DHT22;59997;53.300;-6.260;2022-07-23T07:37:29;16.84;94.96
71942;DHT22;59997;53.300;-6.260;2022-07-23T07:39:55;16.87;94.81
71942;DHT22;59997;53.300;-6.260;2022-07-23T07:42:21;16.91;94.60
71942;DHT22;59997;53.300;-6.260;2022-07-23T07:44:46;16.99;94.36
71942;DHT22;59997;53.300;-6.260;2022-07-23T07:47:12;17.04;94.03
71942;DHT22;59997;53.300;-6.260;2022-07-23T07:49:42;17.04;93.71
71942;DHT22;59997;53.300;-6.260;2022-07-23T07:52:08;17.17;93.38
71942;DHT22;59997;53.300;-6.260;2022-07-23T07:54:33;17.40;93.00
71942;DHT22;59997;53.300;-6.260;2022-07-23T07:56:59;17.61;92.87
71942;DHT22;59997;53.300;-6.260;2022-07-23T07:59:25;17.67;92.68
71942;DHT22;59997;53.300;-6.260;2022-07-23T08:01:51;17.77;92.23
71942;DHT22;59997;53.300;-6.260;2022-07-23T08:04:17;18.01;91.19
71942;DHT22;59997;53.300;-6.260;2022-07-23T08:06:44;18.14;90.48
71942;DHT22;59997;53.300;-6.260;2022-07-23T08:09:09;18.12;89.85
71942;DHT22;59997;53.300;-6.260;2022-07-23T08:11:35;18.00;90.20
71942;DHT22;59997;53.300;-6.260;2022-07-23T08:14:00;17.88;90.70
71942;DHT22;59997;53.300;-6.260;2022-07-23T08:16:26;17.76;91.20
71942;DHT22;59997;53.300;-6.260;2022-07-23T08:18:52;17.72;91.29
71942;DHT22;59997;53.300;-6.260;2022-07-23T08:21:18;17.69;92.07
71942;DHT22;59997;53.300;-6.260;2022-07-23T08:23:44;17.73;91.92
71942;DHT22;59997;53.300;-6.260;2022-07-23T08:26:10;17.73;91.77
71942;DHT22;59997;53.300;-6.260;2022-07-23T08:28:36;17.74;91.61
71942;DHT22;59997;53.300;-6.260;2022-07-23T08:31:02;17.86;92.27
71942;DHT22;59997;53.300;-6.260;2022-07-23T08:33:31;17.97;91.83
71942;DHT22;59997;53.300;-6.260;2022-07-23T08:35:57;17.97;91.87
71942;DHT22;59997;53.300;-6.260;2022-07-23T08:38:24;18.07;91.79
71942;DHT22;59997;53.300;-6.260;2022-07-23T08:40:55;18.08;91.24
71942;DHT22;59997;53.300;-6.260;2022-07-23T08:43:25;18.08;89.80
71942;DHT22;59997;53.300;-6.260;2022-07-23T08:45:53;18.12;91.00
71942;DHT22;59997;53.300;-6.260;2022-07-23T08:48:26;18.25;90.60
71942;DHT22;59997;53.300;-6.260;2022-07-23T08:50:55;18.31;90.33
71942;DHT22;59997;53.300;-6.260;2022-07-23T08:53:23;18.36;88.69
71942;DHT22;59997;53.300;-6.260;2022-07-23T08:55:51;18.24;89.44
71942;DHT22;59997;53.300;-6.260;2022-07-23T08:58:17;18.11;90.34
71942;DHT22;59997;53.300;-6.260;2022-07-23T09:00:45;18.04;90.50
71942;DHT22;59997;53.300;-6.260;2022-07-23T09:03:19;18.04;89.81
71942;DHT22;59997;53.300;-6.260;2022-07-23T09:05:54;17.90;89.78
71942;DHT22;59997;53.300;-6.260;2022-07-23T09:08:24;17.88;90.64
71942;DHT22;59997;53.300;-6.260;2022-07-23T09:10:59;17.96;90.80
71942;DHT22;59997;53.300;-6.260;2022-07-23T09:13:39;18.04;90.46
71942;DHT22;59997;53.300;-6.260;2022-07-23T09:21:38;18.15;90.41
71942;DHT22;59997;53.300;-6.260;2022-07-23T09:24:12;18.18;90.20
71942;DHT22;59997;53.300;-6.260;2022-07-23T09:26:46;18.21;90.57
71942;DHT22;59997;53.300;-6.260;2022-07-23T09:29:19;18.26;89.72
71942;DHT22;59997;53.300;-6.260;2022-07-23T09:34:32;18.31;89.95
71942;DHT22;59997;53.300;-6.260;2022-07-23T09:37:16;18.35;90.59
71942;DHT22;59997;53.300;-6.260;2022-07-23T09:39:43;18.42;90.08
71942;DHT22;59997;53.300;-6.260;2022-07-23T09:42:22;18.56;88.66
71942;DHT22;59997;53.300;-6.260;2022-07-23T09:44:53;18.64;87.87
71942;DHT22;59997;53.300;-6.260;2022-07-23T09:47:20;18.85;85.76
71942;DHT22;59997;53.300;-6.260;2022-07-23T09:50:09;19.01;85.98
71942;DHT22;59997;53.300;-6.260;2022-07-23T09:52:41;19.12;86.17
71942;DHT22;59997;53.300;-6.260;2022-07-23T09:55:08;19.27;86.49
71942;DHT22;59997;53.300;-6.260;2022-07-23T09:57:34;19.54;82.15
71942;DHT22;59997;53.300;-6.260;2022-07-23T10:00:05;19.91;80.96
71942;DHT22;59997;53.300;-6.260;2022-07-23T10:02:33;20.13;82.07
71942;DHT22;59997;53.300;-6.260;2022-07-23T10:05:01;20.28;81.69
71942;DHT22;59997;53.300;-6.260;2022-07-23T10:07:31;20.43;82.01
71942;DHT22;59997;53.300;-6.260;2022-07-23T10:09:59;20.58;80.48
71942;DHT22;59997;53.300;-6.260;2022-07-23T10:12:26;20.84;80.40
71942;DHT22;59997;53.300;-6.260;2022-07-23T10:15:05;20.85;78.88
71942;DHT22;59997;53.300;-6.260;2022-07-23T10:17:35;20.87;78.97
71942;DHT22;59997;53.300;-6.260;2022-07-23T10:20:01;20.78;77.70
71942;DHT22;59997;53.300;-6.260;2022-07-23T10:22:30;20.96;78.44
71942;DHT22;59997;53.300;-6.260;2022-07-23T10:25:26;21.18;77.92
71942;DHT22;59997;53.300;-6.260;2022-07-23T10:30:51;21.10;78.08
71942;DHT22;59997;53.300;-6.260;2022-07-23T10:33:45;21.36;78.75
71942;DHT22;59997;53.300;-6.260;2022-07-23T10:36:28;21.46;78.27
71942;DHT22;59997;53.300;-6.260;2022-07-23T10:38:58;21.48;76.27
71942;DHT22;59997;53.300;-6.260;2022-07-23T10:41:37;21.50;75.01
71942;DHT22;59997;53.300;-6.260;2022-07-23T10:44:16;21.53;76.52
71942;DHT22;59997;53.300;-6.260;2022-07-23T10:47:04;21.58;76.33
71942;DHT22;59997;53.300;-6.260;2022-07-23T10:49:32;21.65;74.68
71942;DHT22;59997;53.300;-6.260;2022-07-23T10:52:18;21.75;74.55
71942;DHT22;59997;53.300;-6.260;2022-07-23T10:57:18;22.07;72.71
71942;DHT22;59997;53.300;-6.260;2022-07-23T11:02:45;22.47;71.48
71942;DHT22;59997;53.300;-6.260;2022-07-23T11:05:15;22.65;72.61
71942;DHT22;59997;53.300;-6.260;2022-07-23T11:10:50;23.30;69.71
71942;DHT22;59997;53.300;-6.260;2022-07-23T11:13:26;23.48;70.34
71942;DHT22;59997;53.300;-6.260;2022-07-23T11:16:13;24.83;65.32
71942;DHT22;59997;53.300;-6.260;2022-07-23T11:26:52;27.97;54.66
71942;DHT22;59997;53.300;-6.260;2022-07-23T11:32:29;28.81;53.61
71942;DHT22;59997;53.300;-6.260;2022-07-23T11:34:55;28.39;54.34
71942;DHT22;59997;53.300;-6.260;2022-07-23T11:37:38;27.80;54.88
71942;DHT22;59997;53.300;-6.260;2022-07-23T11:40:11;27.69;55.90
71942;DHT22;59997;53.300;-6.260;2022-07-23T11:45:22;28.35;53.99
71942;DHT22;59997;53.300;-6.260;2022-07-23T11:47:48;28.97;53.91
71942;DHT22;59997;53.300;-6.260;2022-07-23T11:50:14;29.12;53.16
71942;DHT22;59997;53.300;-6.260;2022-07-23T11:52:39;29.61;52.19
71942;DHT22;59997;53.300;-6.260;2022-07-23T11:55:07;29.43;51.49
71942;DHT22;59997;53.300;-6.260;2022-07-23T11:57:37;29.05;53.14
71942;DHT22;59997;53.300;-6.260;2022-07-23T12:00:28;28.92;52.98
71942;DHT22;59997;53.300;-6.260;2022-07-23T12:02:57;29.36;54.17
71942;DHT22;59997;53.300;-6.260;2022-07-23T12:05:34;29.33;54.48
71942;DHT22;59997;53.300;-6.260;2022-07-23T12:08:03;29.45;51.68
71942;DHT22;59997;53.300;-6.260;2022-07-23T12:10:34;28.80;53.06
71942;DHT22;59997;53.300;-6.260;2022-07-23T12:13:07;29.16;51.00
71942;DHT22;59997;53.300;-6.260;2022-07-23T12:15:42;28.61;52.07
71942;DHT22;59997;53.300;-6.260;2022-07-23T12:18:13;29.16;52.93
71942;DHT22;59997;53.300;-6.260;2022-07-23T12:20:42;30.16;49.89
71942;DHT22;59997;53.300;-6.260;2022-07-23T12:23:09;30.09;50.69
71942;DHT22;59997;53.300;-6.260;2022-07-23T12:25:39;29.59;50.94
71942;DHT22;59997;53.300;-6.260;2022-07-23T12:30:55;30.12;51.24
71942;DHT22;59997;53.300;-6.260;2022-07-23T12:33:32;29.35;50.68
71942;DHT22;59997;53.300;-6.260;2022-07-23T12:36:04;28.59;52.97
71942;DHT22;59997;53.300;-6.260;2022-07-23T12:38:43;28.32;52.88
71942;DHT22;59997;53.300;-6.260;2022-07-23T12:41:10;27.80;55.86
71942;DHT22;59997;53.300;-6.260;2022-07-23T12:43:38;27.25;55.36
71942;DHT22;59997;53.300;-6.260;2022-07-23T12:48:32;27.73;55.94
71942;DHT22;59997;53.300;-6.260;2022-07-23T12:51:09;27.42;56.35
71942;DHT22;59997;53.300;-6.260;2022-07-23T12:53:46;27.76;54.45
71942;DHT22;59997;53.300;-6.260;2022-07-23T12:56:34;27.93;54.59
71942;DHT22;59997;53.300;-6.260;2022-07-23T12:59:15;28.32;54.17
71942;DHT22;59997;53.300;-6.260;2022-07-23T13:01:44;28.46;52.90
71942;DHT22;59997;53.300;-6.260;2022-07-23T13:04:28;28.04;53.34
71942;DHT22;59997;53.300;-6.260;2022-07-23T13:07:00;27.86;54.91
71942;DHT22;59997;53.300;-6.260;2022-07-23T13:09:28;27.73;55.00
71942;DHT22;59997;53.300;-6.260;2022-07-23T13:11:55;27.32;55.96
71942;DHT22;59997;53.300;-6.260;2022-07-23T13:14:21;27.24;57.79
71942;DHT22;59997;53.300;-6.260;2022-07-23T13:16:49;26.82;59.18
71942;DHT22;59997;53.300;-6.260;2022-07-23T13:19:16;27.35;57.42
71942;DHT22;59997;53.300;-6.260;2022-07-23T13:21:41;27.94;55.70
71942;DHT22;59997;53.300;-6.260;2022-07-23T13:24:10;28.52;54.33
71942;DHT22;59997;53.300;-6.260;2022-07-23T13:26:37;28.73;54.62
71942;DHT22;59997;53.300;-6.260;2022-07-23T13:29:04;29.53;51.18
71942;DHT22;59997;53.300;-6.260;2022-07-23T13:31:30;29.76;53.38
71942;DHT22;59997;53.300;-6.260;2022-07-23T13:33:56;29.35;52.87
71942;DHT22;59997;53.300;-6.260;2022-07-23T13:36:23;28.57;54.53
71942;DHT22;59997;53.300;-6.260;2022-07-23T13:38:49;28.07;55.37
71942;DHT22;59997;53.300;-6.260;2022-07-23T13:41:17;27.47;56.33
71942;DHT22;59997;53.300;-6.260;2022-07-23T13:43:43;27.70;56.84
71942;DHT22;59997;53.300;-6.260;2022-07-23T13:46:09;27.81;57.40
71942;DHT22;59997;53.300;-6.260;2022-07-23T13:48:35;27.35;57.50
71942;DHT22;59997;53.300;-6.260;2022-07-23T13:51:00;26.72;59.49
71942;DHT22;59997;53.300;-6.260;2022-07-23T13:53:26;26.36;60.31
71942;DHT22;59997;53.300;-6.260;2022-07-23T13:55:53;26.22;61.17
71942;DHT22;59997;53.300;-6.260;2022-07-23T13:58:20;25.93;60.79
71942;DHT22;59997;53.300;-6.260;2022-07-23T14:00:49;25.86;61.95
71942;DHT22;59997;53.300;-6.260;2022-07-23T14:03:16;25.87;62.16
71942;DHT22;59997;53.300;-6.260;2022-07-23T14:05:42;25.87;62.75
71942;DHT22;59997;53.300;-6.260;2022-07-23T14:08:08;25.82;62.02
71942;DHT22;59997;53.300;-6.260;2022-07-23T14:10:34;26.01;61.84
71942;DHT22;59997;53.300;-6.260;2022-07-23T14:13:00;26.32;61.77
71942;DHT22;59997;53.300;-6.260;2022-07-23T14:15:29;26.11;61.57
71942;DHT22;59997;53.300;-6.260;2022-07-23T14:17:55;26.21;61.71
71942;DHT22;59997;53.300;-6.260;2022-07-23T14:20:22;26.13;61.66
71942;DHT22;59997;53.300;-6.260;2022-07-23T14:22:47;25.80;62.50
71942;DHT22;59997;53.300;-6.260;2022-07-23T14:25:16;25.86;63.62
71942;DHT22;59997;53.300;-6.260;2022-07-23T14:27:42;26.25;62.28
71942;DHT22;59997;53.300;-6.260;2022-07-23T14:30:10;26.73;59.91
71942;DHT22;59997;53.300;-6.260;2022-07-23T14:32:36;26.31;60.57
71942;DHT22;59997;53.300;-6.260;2022-07-23T14:35:03;25.97;62.95
71942;DHT22;59997;53.300;-6.260;2022-07-23T14:37:29;25.55;63.20
71942;DHT22;59997;53.300;-6.260;2022-07-23T14:39:55;25.53;64.11
71942;DHT22;59997;53.300;-6.260;2022-07-23T14:42:21;25.65;64.74
71942;DHT22;59997;53.300;-6.260;2022-07-23T14:44:46;25.62;63.89
71942;DHT22;59997;53.300;-6.260;2022-07-23T14:47:12;25.59;63.58
71942;DHT22;59997;53.300;-6.260;2022-07-23T14:49:38;25.65;64.88
71942;DHT22;59997;53.300;-6.260;2022-07-23T14:52:05;25.84;63.33
71942;DHT22;59997;53.300;-6.260;2022-07-23T14:54:30;25.92;63.04
71942;DHT22;59997;53.300;-6.260;2022-07-23T14:56:58;25.93;63.40
71942;DHT22;59997;53.300;-6.260;2022-07-23T14:59:24;25.72;63.60
71942;DHT22;59997;53.300;-6.260;2022-07-23T15:01:51;25.56;64.28
71942;DHT22;59997;53.300;-6.260;2022-07-23T15:04:18;25.66;64.52
71942;DHT22;59997;53.300;-6.260;2022-07-23T15:06:44;25.75;63.56
71942;DHT22;59997;53.300;-6.260;2022-07-23T15:09:10;25.79;64.11
71942;DHT22;59997;53.300;-6.260;2022-07-23T15:11:36;26.00;62.76
71942;DHT22;59997;53.300;-6.260;2022-07-23T15:14:04;26.70;61.56
71942;DHT22;59997;53.300;-6.260;2022-07-23T15:16:30;27.60;58.54
71942;DHT22;59997;53.300;-6.260;2022-07-23T15:18:56;27.50;59.44
71942;DHT22;59997;53.300;-6.260;2022-07-23T15:21:22;27.24;59.08
71942;DHT22;59997;53.300;-6.260;2022-07-23T15:23:48;27.04;60.63
71942;DHT22;59997;53.300;-6.260;2022-07-23T15:26:14;26.73;60.78
71942;DHT22;59997;53.300;-6.260;2022-07-23T15:28:41;25.98;61.43
71942;DHT22;59997;53.300;-6.260;2022-07-23T15:31:07;25.51;63.52
71942;DHT22;59997;53.300;-6.260;2022-07-23T15:33:33;25.20;65.34
71942;DHT22;59997;53.300;-6.260;2022-07-23T15:35:59;25.03;64.35
71942;DHT22;59997;53.300;-6.260;2022-07-23T15:38:26;24.84;65.55
71942;DHT22;59997;53.300;-6.260;2022-07-23T15:40:54;24.76;65.37
71942;DHT22;59997;53.300;-6.260;2022-07-23T15:43:21;24.82;65.67
71942;DHT22;59997;53.300;-6.260;2022-07-23T15:45:48;24.56;65.58
71942;DHT22;59997;53.300;-6.260;2022-07-23T15:48:14;24.20;66.25
71942;DHT22;59997;53.300;-6.260;2022-07-23T15:50:40;23.97;68.00
71942;DHT22;59997;53.300;-6.260;2022-07-23T15:53:05;23.79;67.77
71942;DHT22;59997;53.300;-6.260;2022-07-23T15:55:31;23.80;68.50
71942;DHT22;59997;53.300;-6.260;2022-07-23T15:57:56;23.82;68.62